Time;durP1;ratioP1;P1;durP2;ratioP2;P2;SDS_P1;SDS_P2;PMS_P1;PMS_P2;Temp;Humidity;BMP_temperature;BMP_pressure;BME280_temperature;BME280_humidity;BME280_pressure;Samples;Min_cycle;Max_cycle;Signal;HPM_P1;HPM_P2
2022/09/16 00:02:14;;;;;;;10.02;3.42;;;;;;;11.68;99.37;101048.53;4990871;28;20030;-92
2022/09/16 00:04:39;;;;;;;6.68;2.35;;;;;;;11.76;99.69;101047.97;4999192;28;20116;-92
2022/09/16 00:07:04;;;;;;;7.60;2.53;;;;;;;11.78;100.00;101046.91;5010458;28;20037;-93
2022/09/16 00:09:30;;;;;;;8.55;2.80;;;;;;;11.76;100.00;101040.03;5028992;28;20018;-92
2022/09/16 00:11:59;;;;;;;8.68;2.90;;;;;;;11.80;100.00;101050.28;5025357;28;20038;-92
2022/09/16 00:14:24;;;;;;;7.32;2.80;;;;;;;11.83;100.00;101044.75;5007061;28;20116;-92
2022/09/16 00:16:49;;;;;;;7.78;2.50;;;;;;;11.84;100.00;101043.81;4992019;28;20467;-92
2022/09/16 00:19:15;;;;;;;10.75;2.60;;;;;;;11.86;100.00;101036.63;5015993;28;20029;-93
2022/09/16 00:21:41;;;;;;;8.45;2.70;;;;;;;11.90;100.00;101031.94;5028755;28;20029;-93
2022/09/16 00:24:06;;;;;;;12.38;2.85;;;;;;;11.88;100.00;101029.44;5028978;28;20018;-93
2022/09/16 00:26:33;;;;;;;9.20;2.58;;;;;;;11.93;100.00;101034.34;5029009;28;20021;-92
2022/09/16 00:28:58;;;;;;;9.13;2.25;;;;;;;11.94;100.00;101033.38;5032000;28;20128;-93
2022/09/16 00:31:24;;;;;;;9.40;2.80;;;;;;;11.92;99.99;101036.16;5028490;28;20025;-92
2022/09/16 00:33:49;;;;;;;11.90;3.13;;;;;;;11.92;99.54;101036.16;5029446;28;20033;-93
2022/09/16 00:36:17;;;;;;;6.45;2.13;;;;;;;11.88;98.81;101045.25;5006370;28;20337;-92
2022/09/16 00:38:43;;;;;;;7.13;2.45;;;;;;;11.83;98.71;101031.59;5007967;28;20033;-92
2022/09/16 00:41:16;;;;;;;11.45;3.10;;;;;;;11.81;98.53;101033.50;4999131;28;20030;-92
2022/09/16 00:43:52;;;;;;;;;;;;;;;11.94;97.91;101033.38;5024099;28;20025;-92
2022/09/16 00:46:24;;;;;;;9.48;2.85;;;;;;;11.77;98.27;101023.28;5028301;28;19909;-93
2022/09/16 00:48:50;;;;;;;10.23;3.13;;;;;;;11.75;97.40;101020.75;5028900;28;20057;-92
2022/09/16 00:51:16;;;;;;;8.63;2.65;;;;;;;11.67;97.65;101020.50;5027488;28;20136;-92
2022/09/16 00:53:50;;;;;;;8.20;2.88;;;;;;;11.63;98.16;101021.69;5007569;28;20371;-92
2022/09/16 00:56:18;;;;;;;7.88;2.97;;;;;;;11.55;97.98;101019.63;5011403;28;20031;-91
2022/09/16 00:58:50;;;;;;;9.65;3.20;;;;;;;11.53;98.54;101016.25;5028629;28;20029;-92
2022/09/16 01:01:15;;;;;;;6.93;2.70;;;;;;;11.53;98.64;101018.03;5009936;28;20284;-92
2022/09/16 01:04:02;;;;;;;7.10;2.53;;;;;;;11.48;98.59;101020.19;5010419;28;20022;-93
2022/09/16 01:06:29;;;;;;;6.55;2.47;;;;;;;11.34;97.82;101015.97;5017984;28;20025;-93
2022/09/16 01:08:56;;;;;;;7.97;2.83;;;;;;;11.23;98.14;101010.66;5032026;28;20025;-93
2022/09/16 01:11:22;;;;;;;7.95;2.65;;;;;;;11.20;98.35;101010.84;5009691;28;20034;-93
2022/09/16 01:13:48;;;;;;;7.65;2.83;;;;;;;11.13;98.54;101015.75;5028405;28;20054;-92
2022/09/16 01:16:28;;;;;;;9.30;3.05;;;;;;;11.11;98.39;101012.38;5013972;28;20040;-93
2022/09/16 01:19:04;;;;;;;6.72;3.35;;;;;;;11.12;99.12;101023.75;5031182;28;20032;-93
2022/09/16 01:21:44;;;;;;;7.93;2.95;;;;;;;11.03;99.45;101020.00;5031792;28;20509;-92
2022/09/16 01:24:40;;;;;;;9.63;3.00;;;;;;;11.01;99.20;101019.28;5013406;28;20455;-93
2022/09/16 01:27:12;;;;;;;8.88;3.00;;;;;;;10.94;99.11;101012.78;5031503;28;20022;-92
2022/09/16 01:30:08;;;;;;;7.47;2.97;;;;;;;10.97;99.51;101020.47;5014102;28;20033;-92
2022/09/16 01:32:47;;;;;;;7.18;2.72;;;;;;;10.90;99.75;101014.81;5029728;28;20029;-93
2022/09/16 01:35:42;;;;;;;9.85;3.35;;;;;;;10.90;100.00;101013.97;5031305;28;20022;-93
2022/09/16 01:38:24;;;;;;;9.88;3.03;;;;;;;10.91;100.00;101010.38;5013820;28;20025;-93
2022/09/16 01:40:55;;;;;;;7.97;3.00;;;;;;;10.88;99.51;101014.06;5014025;28;20545;-93
2022/09/16 01:43:26;;;;;;;9.38;2.95;;;;;;;10.89;99.53;101010.50;5031117;28;20486;-92
2022/09/16 01:45:51;;;;;;;9.00;3.50;;;;;;;10.89;99.71;101012.28;5013238;28;20103;-93
2022/09/16 01:48:38;;;;;;;7.82;2.92;;;;;;;10.85;99.71;101008.19;5030931;28;20029;-93
2022/09/16 01:51:22;;;;;;;8.43;3.00;;;;;;;10.78;100.00;101005.13;5030904;28;20083;-93
2022/09/16 01:54:18;;;;;;;11.15;3.03;;;;;;;10.79;100.00;101003.34;5030826;28;20060;-93
2022/09/16 01:56:56;;;;;;;9.70;3.55;;;;;;;10.70;99.57;101001.38;5031274;28;20071;-94
2022/09/16 01:59:34;;;;;;;10.00;3.20;;;;;;;10.71;99.85;101013.59;5030772;28;20029;-92
2022/09/16 02:02:08;;;;;;;9.02;2.92;;;;;;;10.63;99.48;101007.09;5014936;28;20025;-92
2022/09/16 02:04:45;;;;;;;8.95;3.42;;;;;;;10.66;99.64;101016.56;5030756;28;20075;-92
2022/09/16 02:07:15;;;;;;;9.63;3.03;;;;;;;10.63;99.22;101022.88;4992305;28;20104;-93
2022/09/16 02:09:47;;;;;;;11.95;3.45;;;;;;;10.59;100.00;101029.31;5030938;28;20486;-93
2022/09/16 02:12:19;;;;;;;9.70;3.03;;;;;;;10.61;99.80;101016.88;5011014;28;20377;-92
2022/09/16 02:14:47;;;;;;;10.52;3.17;;;;;;;10.62;100.00;101015.94;5030403;28;20026;-92
2022/09/16 02:17:21;;;;;;;5.80;2.60;;;;;;;10.60;100.00;101020.47;5030353;28;20462;-92
2022/09/16 02:20:01;;;;;;;7.97;3.05;;;;;;;10.66;99.96;101025.28;5031123;28;20028;-94
2022/09/16 02:22:47;;;;;;;8.85;2.72;;;;;;;10.66;100.00;101021.81;5011968;28;20025;-93
2022/09/16 02:25:17;;;;;;;8.60;3.13;;;;;;;10.65;99.87;101020.13;5025564;28;20053;-94
2022/09/16 02:27:45;;;;;;;9.13;2.80;;;;;;;10.66;100.00;101017.41;5012474;28;20018;-93
2022/09/16 02:30:16;;;;;;;9.18;2.97;;;;;;;10.74;100.00;101019.47;5012285;28;20037;-93
2022/09/16 02:32:57;;;;;;;7.20;2.88;;;;;;;10.77;100.00;101018.41;5012950;28;20501;-92
2022/09/16 02:35:26;;;;;;;9.00;2.72;;;;;;;10.77;100.00;101018.41;5029895;28;20041;-92
2022/09/16 02:38:02;;;;;;;11.68;3.35;;;;;;;10.77;100.00;101015.78;5030844;28;20202;-93
2022/09/16 02:40:30;;;;;;;11.82;3.50;;;;;;;10.76;100.00;101011.47;5030413;28;20108;-94
2022/09/16 02:42:59;;;;;;;9.48;2.90;;;;;;;10.79;100.00;101016.50;5011513;28;20079;-93
2022/09/16 02:45:58;;;;;;;11.77;2.90;;;;;;;10.86;100.00;101015.97;5030374;28;20025;-93
2022/09/16 02:48:32;;;;;;;11.00;2.97;;;;;;;10.88;100.00;101011.44;5030674;28;20036;-94
2022/09/16 02:51:11;;;;;;;9.38;2.70;;;;;;;10.90;100.00;101020.06;5029894;28;20033;-95
2022/09/16 02:53:45;;;;;;;7.82;2.60;;;;;;;10.88;100.00;101023.78;5030777;28;20424;-94
2022/09/16 02:56:23;;;;;;;10.13;2.97;;;;;;;10.85;100.00;101021.34;5029092;28;20477;-93
2022/09/16 02:58:49;;;;;;;10.63;2.55;;;;;;;10.87;100.00;101024.72;5012597;28;20021;-94
2022/09/16 03:01:16;;;;;;;11.38;3.05;;;;;;;10.81;100.00;101014.63;5029681;28;20397;-93
2022/09/16 03:03:41;;;;;;;6.10;2.72;;;;;;;10.85;100.00;101016.94;5015254;28;20486;-94
2022/09/16 03:06:25;;;;;;;9.68;2.65;;;;;;;10.86;100.00;101017.78;5030281;28;20079;-94
2022/09/16 03:08:52;;;;;;;9.05;3.22;;;;;;;10.88;100.00;101021.13;5029261;28;20022;-93
2022/09/16 03:11:35;;;;;;;9.85;2.83;;;;;;;10.85;100.00;101016.09;5028698;28;20025;-94
2022/09/16 03:14:19;;;;;;;;;;;;;;;10.98;99.56;101014.25;5009275;28;20050;-93
2022/09/16 03:17:12;;;;;;;7.80;2.75;;;;;;;10.94;100.00;101007.53;5010525;28;19985;-93
2022/09/16 03:19:38;;;;;;;;;;;;;;;11.04;99.35;101005.88;5010839;28;20022;-93
2022/09/16 03:22:54;;;;;;;9.70;2.80;;;;;;;11.04;99.91;101007.69;5008777;28;19921;-93
2022/09/16 03:25:31;;;;;;;11.55;2.70;;;;;;;10.96;100.00;101014.34;4980117;28;20281;-93
2022/09/16 03:28:07;;;;;;;6.75;2.75;;;;;;;10.93;100.00;101011.09;4990883;28;20098;-92
2022/09/16 03:30:42;;;;;;;9.65;2.70;;;;;;;10.95;100.00;101011.84;4990749;28;20127;-93
2022/09/16 03:33:24;;;;;;;6.95;2.70;;;;;;;10.95;100.00;101006.56;4994388;28;20018;-93
2022/09/16 03:35:51;;;;;;;6.32;2.22;;;;;;;10.95;100.00;101010.03;5010453;28;20037;-93
2022/09/16 03:38:18;;;;;;;10.10;2.35;;;;;;;10.82;100.00;101006.63;5008711;28;20057;-94
2022/09/16 03:40:47;;;;;;;8.32;2.60;;;;;;;10.88;100.00;101007.97;5008639;28;20323;-93
2022/09/16 03:43:14;;;;;;;6.13;2.45;;;;;;;10.83;100.00;101002.22;5009517;28;20476;-94
2022/09/16 03:45:41;;;;;;;8.13;2.65;;;;;;;10.83;100.00;100997.78;5009597;28;20474;-93
2022/09/16 03:48:08;;;;;;;6.65;2.47;;;;;;;10.82;100.00;100997.91;5008597;28;20045;-93
2022/09/16 03:50:33;;;;;;;6.50;2.33;;;;;;;10.78;100.00;100999.03;5009803;28;20171;-94
2022/09/16 03:52:58;;;;;;;8.50;2.40;;;;;;;10.74;100.00;101008.09;5009230;28;20030;-93
2022/09/16 03:55:24;;;;;;;7.38;2.15;;;;;;;10.75;100.00;101000.09;4998000;28;20054;-93
2022/09/16 03:57:51;;;;;;;8.82;2.33;;;;;;;10.78;100.00;101004.31;5008461;28;20022;-93
2022/09/16 04:00:17;;;;;;;13.60;2.60;;;;;;;10.78;100.00;101009.56;5000505;28;20022;-94
2022/09/16 04:02:42;;;;;;;5.82;2.42;;;;;;;10.74;100.00;100997.59;4999731;28;20022;-92
2022/09/16 04:05:08;;;;;;;7.55;2.38;;;;;;;10.72;100.00;101002.13;5009419;28;20014;-94
2022/09/16 04:07:34;;;;;;;15.20;2.85;;;;;;;10.71;100.00;101008.34;5002831;28;20143;-93
2022/09/16 04:10:00;;;;;;;7.10;2.67;;;;;;;10.76;100.00;101011.47;5003570;28;20010;-93
2022/09/16 04:12:26;;;;;;;11.23;2.70;;;;;;;10.76;100.00;101001.78;5002529;28;20458;-93
2022/09/16 04:14:51;;;;;;;8.23;2.55;;;;;;;10.76;100.00;101006.22;5028462;28;20116;-94
2022/09/16 04:17:17;;;;;;;8.32;2.38;;;;;;;10.80;100.00;100999.75;5028559;28;20101;-94
2022/09/16 04:19:42;;;;;;;8.05;2.55;;;;;;;10.79;100.00;101008.63;5011388;28;20359;-93
2022/09/16 04:22:08;;;;;;;7.00;2.40;;;;;;;10.77;100.00;101007.88;5010264;28;20095;-93
2022/09/16 04:24:33;;;;;;;7.93;2.30;;;;;;;10.80;100.00;101010.28;5029076;28;20470;-93
2022/09/16 04:26:58;;;;;;;8.05;2.20;;;;;;;10.83;100.00;101007.47;5028772;28;20029;-94
2022/09/16 04:29:23;;;;;;;9.70;2.33;;;;;;;10.86;100.00;101012.50;5010138;28;20028;-94
2022/09/16 04:31:49;;;;;;;9.95;2.92;;;;;;;10.86;100.00;101012.50;5028869;28;20025;-93
2022/09/16 04:34:14;;;;;;;8.27;2.50;;;;;;;10.87;100.00;101014.19;5028216;28;20318;-95
2022/09/16 04:36:39;;;;;;;6.78;1.98;;;;;;;10.90;100.00;101027.13;5015287;28;20030;-93
2022/09/16 04:39:05;;;;;;;8.85;2.17;;;;;;;10.90;100.00;101029.75;5033160;28;20030;-93
2022/09/16 04:41:31;;;;;;;8.60;2.20;;;;;;;10.94;100.00;101025.94;5031735;28;20021;-93
2022/09/16 04:43:58;;;;;;;8.65;2.30;;;;;;;10.97;100.00;101018.66;5011763;28;20168;-93
2022/09/16 04:46:28;;;;;;;7.13;2.20;;;;;;;10.97;100.00;101017.81;5020516;28;20061;-92
2022/09/16 04:48:56;;;;;;;8.77;2.03;;;;;;;11.02;100.00;101013.06;5032385;28;20140;-91
2022/09/16 04:51:22;;;;;;;6.60;1.73;;;;;;;11.00;100.00;101004.44;5032697;28;20279;-93
2022/09/16 04:53:48;;;;;;;8.00;2.05;;;;;;;11.04;100.00;101005.06;5032465;28;20032;-92
2022/09/16 04:56:21;;;;;;;7.57;1.80;;;;;;;11.04;100.00;101005.88;5031309;28;20025;-92
2022/09/16 04:58:51;;;;;;;8.00;1.58;;;;;;;11.04;100.00;101011.16;5031421;28;20036;-91
2022/09/16 05:01:19;;;;;;;8.68;1.92;;;;;;;11.01;100.00;101008.75;5032126;28;20104;-91
2022/09/16 05:03:47;;;;;;;10.88;2.10;;;;;;;11.04;100.00;101007.69;5031658;28;20031;-90
2022/09/16 05:06:15;;;;;;;7.50;1.83;;;;;;;10.99;100.00;101013.28;5030583;28;20049;-90
2022/09/16 05:08:41;;;;;;;5.78;1.40;;;;;;;11.02;100.00;101009.59;5032367;28;20028;-91
2022/09/16 05:11:12;;;;;;;8.48;1.50;;;;;;;11.00;100.00;101009.69;5009505;28;20026;-93
2022/09/16 05:13:38;;;;;;;5.72;1.55;;;;;;;10.98;100.00;101014.25;5009492;28;20616;-91
2022/09/16 05:16:15;;;;;;;7.20;1.60;;;;;;;10.99;100.00;101018.56;5032342;28;20164;-92
2022/09/16 05:18:42;;;;;;;5.40;1.58;;;;;;;10.94;100.00;101016.25;5031768;28;20061;-93
2022/09/16 05:21:10;;;;;;;6.07;1.70;;;;;;;10.94;100.00;101016.25;5014682;28;20025;-92
2022/09/16 05:23:36;;;;;;;7.97;1.70;;;;;;;10.95;100.00;101017.94;5014199;28;20030;-94
2022/09/16 05:26:08;;;;;;;7.18;1.70;;;;;;;10.94;100.00;101023.31;5032325;28;20028;-94
2022/09/16 05:28:34;;;;;;;8.13;1.90;;;;;;;10.95;100.00;101027.63;5029075;28;20109;-93
2022/09/16 05:31:13;;;;;;;6.03;1.65;;;;;;;11.00;100.00;101020.22;5011132;28;20277;-94
2022/09/16 05:33:41;;;;;;;8.38;1.90;;;;;;;11.02;100.00;101020.97;5027125;28;20028;-91
2022/09/16 05:36:08;;;;;;;8.70;1.77;;;;;;;11.05;100.00;101019.91;5014111;28;20029;-94
2022/09/16 05:38:34;;;;;;;6.60;1.70;;;;;;;11.07;100.00;101026.72;5031044;28;20029;-93
2022/09/16 05:41:00;;;;;;;7.63;1.98;;;;;;;11.07;100.00;101025.88;5014548;28;20052;-93
2022/09/16 05:43:26;;;;;;;6.25;1.75;;;;;;;11.11;100.00;101025.53;5030803;28;20036;-96
2022/09/16 05:45:52;;;;;;;3.55;1.60;;;;;;;11.12;100.00;101029.84;5036140;28;20025;-93
2022/09/16 05:48:18;;;;;;;5.20;1.60;;;;;;;11.17;100.00;101016.34;5010117;28;20018;-92
2022/09/16 05:51:12;;;;;;;6.75;1.63;;;;;;;11.22;100.00;101024.78;5023198;28;20022;-92
2022/09/16 05:53:38;;;;;;;5.00;1.58;;;;;;;11.23;100.00;101015.94;5029910;28;20076;-94
2022/09/16 05:56:10;;;;;;;4.45;1.50;;;;;;;11.27;100.00;101030.56;5031863;28;20103;-93
2022/09/16 05:58:36;;;;;;;6.25;1.77;;;;;;;11.32;100.00;101019.66;5014648;28;20108;-93
2022/09/16 06:01:23;;;;;;;6.65;2.03;;;;;;;11.33;100.00;101016.06;5009702;28;20101;-92
2022/09/16 06:03:50;;;;;;;5.03;1.52;;;;;;;11.31;100.00;101013.56;5026969;28;20052;-92
2022/09/16 06:06:33;;;;;;;5.25;1.38;;;;;;;11.35;100.00;101022.06;5013065;28;20025;-93
2022/09/16 06:09:02;;;;;;;6.18;1.40;;;;;;;11.35;100.00;101024.72;5013532;28;20391;-93
2022/09/16 06:11:27;;;;;;;5.70;1.30;;;;;;;11.36;100.00;101023.75;5031077;28;20036;-94
2022/09/16 06:13:55;;;;;;;6.20;1.48;;;;;;;11.36;100.00;101031.66;5012491;28;20494;-94
2022/09/16 06:16:22;;;;;;;6.40;1.60;;;;;;;11.40;100.00;101027.84;5013308;28;20029;-92
2022/09/16 06:18:47;;;;;;;2.83;1.00;;;;;;;11.39;100.00;101027.00;5009853;28;20474;-94
2022/09/16 06:21:12;;;;;;;5.10;1.30;;;;;;;11.44;100.00;101029.28;5009274;28;20036;-93
2022/09/16 06:23:38;;;;;;;4.93;1.30;;;;;;;11.50;100.00;101034.09;5009918;28;20109;-92
2022/09/16 06:26:10;;;;;;;5.75;1.15;;;;;;;11.55;100.00;101031.94;5022724;28;20475;-93
2022/09/16 06:28:36;;;;;;;3.17;1.10;;;;;;;11.56;100.00;101034.47;5004997;28;20022;-93
2022/09/16 06:31:06;;;;;;;5.53;1.38;;;;;;;11.55;100.00;101042.47;5028037;28;20029;-93
2022/09/16 06:33:33;;;;;;;4.40;1.27;;;;;;;11.57;100.00;101041.41;5002364;28;20095;-94
2022/09/16 06:36:07;;;;;;;4.82;1.48;;;;;;;11.64;100.00;101041.81;5011250;28;20056;-93
2022/09/16 06:38:33;;;;;;;4.35;1.15;;;;;;;11.67;100.00;101041.59;5024357;28;20493;-92
2022/09/16 06:41:06;;;;;;;3.42;1.10;;;;;;;11.69;100.00;101047.59;5003309;28;20108;-93
2022/09/16 06:43:33;;;;;;;5.35;1.52;;;;;;;11.69;100.00;101044.09;5011172;28;20026;-93
2022/09/16 06:46:00;;;;;;;4.28;1.20;;;;;;;11.72;100.00;101047.34;5007062;28;20027;-93
2022/09/16 06:48:26;;;;;;;4.05;1.50;;;;;;;11.69;100.00;101046.75;5010320;28;20033;-93
2022/09/16 06:51:06;;;;;;;4.25;1.65;;;;;;;11.71;100.00;101058.84;5007207;28;20048;-94
2022/09/16 06:53:32;;;;;;;4.95;1.50;;;;;;;11.69;100.00;101060.75;5008804;28;20036;-93
2022/09/16 06:56:03;;;;;;;3.95;1.35;;;;;;;11.69;100.00;101059.91;5012260;28;20053;-94
2022/09/16 06:58:32;;;;;;;5.85;1.60;;;;;;;11.65;100.00;101055.84;5029070;28;20029;-93
2022/09/16 07:00:58;;;;;;;5.15;1.42;;;;;;;11.60;99.07;101053.53;5014380;28;20036;-94
2022/09/16 07:03:23;;;;;;;4.43;1.48;;;;;;;11.67;99.89;101052.13;5030953;28;20022;-93
2022/09/16 07:06:01;;;;;;;3.67;1.38;;;;;;;11.79;100.00;101061.78;5013798;28;20037;-92
2022/09/16 07:08:31;;;;;;;4.20;1.25;;;;;;;11.90;99.12;101048.59;5028654;28;20040;-92
2022/09/16 07:10:59;;;;;;;8.43;1.42;;;;;;;11.97;98.17;101048.13;5011390;28;20049;-92
2022/09/16 07:13:25;;;;;;;4.70;1.38;;;;;;;12.12;97.94;101057.53;5027675;28;20056;-92
2022/09/16 07:15:50;;;;;;;3.67;1.08;;;;;;;12.28;98.16;101047.47;5032093;28;20025;-92
2022/09/16 07:18:16;;;;;;;3.88;1.30;;;;;;;12.49;97.00;101040.50;5011870;28;20057;-92
2022/09/16 07:20:41;;;;;;;3.72;1.35;;;;;;;12.65;95.41;101036.66;5010222;28;20486;-92
2022/09/16 07:23:06;;;;;;;4.00;1.23;;;;;;;12.85;94.46;101041.19;5005986;28;20031;-92
2022/09/16 07:25:32;;;;;;;3.22;1.02;;;;;;;13.14;94.83;101046.72;5031050;28;20022;-92
2022/09/16 07:27:57;;;;;;;6.15;1.15;;;;;;;13.42;93.27;101050.63;5014000;28;20029;-94
2022/09/16 07:30:22;;;;;;;4.20;1.38;;;;;;;13.67;91.92;101060.88;5012787;28;20021;-94
2022/09/16 07:32:47;;;;;;;6.35;1.25;;;;;;;13.84;89.90;101066.53;5031136;28;20044;-94
2022/09/16 07:35:13;;;;;;;5.15;1.50;;;;;;;13.71;88.42;101062.28;5030702;28;20424;-92
2022/09/16 07:37:38;;;;;;;5.72;1.40;;;;;;;13.58;88.76;101051.03;5029582;28;20025;-93
2022/09/16 07:40:04;;;;;;;3.80;1.30;;;;;;;13.49;89.63;101057.09;5009163;28;20083;-92
2022/09/16 07:42:29;;;;;;;4.47;1.30;;;;;;;13.37;89.37;101058.13;5018749;28;20484;-93
2022/09/16 07:44:58;;;;;;;4.63;1.40;;;;;;;13.30;90.06;101070.16;5013949;28;20017;-93
2022/09/16 07:47:23;;;;;;;4.95;1.40;;;;;;;13.41;90.73;101070.09;5031093;28;20045;-88
2022/09/16 07:49:54;;;;;;;5.50;1.45;;;;;;;13.35;90.47;101071.47;5028873;28;20358;-89
2022/09/16 07:52:20;;;;;;;4.88;1.65;;;;;;;13.35;91.35;101060.88;5008247;28;20539;-86
2022/09/16 07:54:45;;;;;;;5.55;1.50;;;;;;;13.33;92.41;101059.34;5010842;28;20026;-90
2022/09/16 07:57:10;;;;;;;3.95;1.45;;;;;;;13.30;94.08;101060.44;5020335;28;20018;-89
2022/09/16 07:59:35;;;;;;;4.28;1.50;;;;;;;13.25;94.82;101070.53;5015133;28;20057;-89
2022/09/16 08:02:02;;;;;;;5.80;1.50;;;;;;;13.10;94.80;101072.56;5011387;28;20489;-89
2022/09/16 08:04:27;;;;;;;5.80;1.88;;;;;;;13.07;95.94;101072.81;5030164;28;20127;-90
2022/09/16 08:06:52;;;;;;;4.70;2.08;;;;;;;13.16;96.59;101077.34;5029153;28;20022;-88
2022/09/16 08:09:18;;;;;;;6.78;1.77;;;;;;;13.41;95.69;101085.97;5029278;28;20053;-89
2022/09/16 08:11:43;;;;;;;7.78;1.67;;;;;;;13.60;94.61;101074.69;5030993;28;20800;-88
2022/09/16 08:14:08;;;;;;;4.07;1.42;;;;;;;13.83;93.88;101086.03;5015616;28;20053;-88
2022/09/16 08:16:34;;;;;;;6.28;1.52;;;;;;;13.89;92.46;101074.91;5030091;28;20120;-89
2022/09/16 08:18:59;;;;;;;8.02;2.10;;;;;;;14.00;92.08;101082.78;5025462;28;20017;-89
2022/09/16 08:21:27;;;;;;;6.28;1.85;;;;;;;14.25;91.88;101082.38;5028345;28;20553;-89
2022/09/16 08:23:53;;;;;;;4.78;1.52;;;;;;;14.49;90.27;101083.94;5030151;28;20022;-87
2022/09/16 08:26:19;;;;;;;7.88;2.00;;;;;;;14.66;88.54;101085.94;5029539;28;20026;-89
2022/09/16 08:28:47;;;;;;;8.57;1.67;;;;;;;14.62;87.73;101074.78;5011488;28;20048;-88
2022/09/16 08:31:13;;;;;;;4.63;1.33;;;;;;;14.49;87.60;101083.94;5028677;28;20022;-89
2022/09/16 08:33:40;;;;;;;6.13;1.75;;;;;;;14.37;87.55;101097.22;5010813;28;20087;-88
2022/09/16 08:36:25;;;;;;;4.82;1.50;;;;;;;14.38;88.45;101090.09;5028766;28;20458;-88
2022/09/16 08:38:54;;;;;;;5.93;1.75;;;;;;;14.63;88.35;101096.81;5029048;28;20481;-89
2022/09/16 08:41:26;;;;;;;7.60;1.83;;;;;;;14.88;86.82;101091.06;5028829;28;20029;-88
2022/09/16 08:44:18;;;;;;;7.60;1.58;;;;;;;15.16;87.11;101083.28;5030354;28;20289;-89
2022/09/16 08:46:49;;;;;;;3.83;1.30;;;;;;;15.37;83.05;101078.72;5029407;28;20025;-89
2022/09/16 08:49:39;;;;;;;5.28;1.20;;;;;;;15.62;81.84;101080.03;5027014;28;20033;-88
2022/09/16 08:52:30;;;;;;;3.55;1.08;;;;;;;15.87;82.72;101086.53;5012128;28;20044;-88
2022/09/16 08:55:30;;;;;;;4.15;1.35;;;;;;;16.18;81.30;101088.03;5003328;28;20088;-89
2022/09/16 08:58:11;;;;;;;3.20;0.93;;;;;;;16.44;78.12;101087.41;5010955;28;20094;-87
2022/09/16 09:00:37;;;;;;;3.53;0.90;;;;;;;16.40;73.29;101089.47;5010755;28;20071;-88
2022/09/16 09:03:35;;;;;;;6.35;1.35;;;;;;;16.29;76.38;101084.34;5027664;28;20025;-89
2022/09/16 09:06:17;;;;;;;4.70;1.33;;;;;;;15.98;74.88;101086.38;5010334;28;20466;-89
2022/09/16 09:09:20;;;;;;;7.63;1.55;;;;;;;15.96;77.91;101088.34;5028612;28;20036;-91
2022/09/16 09:11:55;;;;;;;6.35;1.10;;;;;;;15.73;77.46;101092.28;5011681;28;20121;-88
2022/09/16 09:14:46;;;;;;;7.68;1.40;;;;;;;15.72;78.69;101090.63;5010397;28;20042;-90
2022/09/16 09:17:14;;;;;;;5.90;1.33;;;;;;;15.66;77.25;101086.72;5015713;28;20029;-90
2022/09/16 09:19:45;;;;;;;8.50;1.80;;;;;;;15.57;78.59;101091.00;5011785;28;20025;-90
2022/09/16 09:22:35;;;;;;;5.30;1.10;;;;;;;15.55;77.77;101089.47;5029880;28;20100;-90
2022/09/16 09:25:13;;;;;;;3.45;1.20;;;;;;;15.42;76.68;101081.78;5014315;28;20032;-90
2022/09/16 09:27:53;;;;;;;5.50;1.20;;;;;;;15.55;77.80;101089.47;5033221;28;20045;-91
2022/09/16 09:30:26;;;;;;;4.00;1.10;;;;;;;15.79;75.73;101097.03;5013282;28;20025;-90
2022/09/16 09:33:20;;;;;;;4.93;1.20;;;;;;;15.65;73.64;101096.50;5015784;28;20052;-90
2022/09/16 09:36:14;;;;;;;3.85;1.00;;;;;;;15.59;74.84;101083.75;5031498;28;20018;-90
2022/09/16 09:38:49;;;;;;;2.97;0.90;;;;;;;15.94;75.18;101087.66;5015419;28;20037;-91
2022/09/16 09:41:34;;;;;;;6.03;1.33;;;;;;;16.14;75.19;101083.16;5035828;28;20030;-90
2022/09/16 09:44:27;;;;;;;3.63;0.98;;;;;;;16.18;74.64;101082.72;5031094;28;20028;-91
2022/09/16 09:46:56;;;;;;;;;;;;;;;16.34;76.16;101083.91;5030687;28;20041;-89
2022/09/16 09:49:37;;;;;;;5.32;1.05;;;;;;;16.44;72.88;101087.41;5016986;28;19939;-91
2022/09/16 09:52:50;;;;;;;4.05;1.08;;;;;;;16.44;72.10;101082.09;5034141;28;20021;-90
2022/09/16 09:55:22;;;;;;;3.65;0.80;;;;;;;16.46;67.69;101074.81;4953784;28;20694;-89
2022/09/16 09:58:03;;;;;;;3.47;0.90;;;;;;;16.44;68.67;101074.13;4953144;29;20062;-90
2022/09/16 10:00:29;;;;;;;2.45;0.80;;;;;;;16.53;67.85;101071.41;4999420;28;20468;-90
2022/09/16 10:03:03;;;;;;;1.98;0.88;;;;;;;16.33;71.46;101087.56;5035362;28;20029;-90
2022/09/16 10:05:29;;;;;;;3.85;1.63;;;;;;;16.09;74.34;101094.22;5031171;28;20025;-90
2022/09/16 10:08:00;;;;;;;3.95;1.20;;;;;;;15.56;73.44;101123.78;5027103;28;20032;-91
2022/09/16 10:10:31;;;;;;;4.07;0.93;;;;;;;15.07;74.33;101126.50;5027026;28;20032;-90
2022/09/16 10:13:07;;;;;;;4.53;0.75;;;;;;;14.46;77.11;101129.22;5027854;28;20041;-86
2022/09/16 10:15:33;;;;;;;4.68;1.05;;;;;;;13.95;77.54;101127.31;5012860;28;20026;-85
2022/09/16 10:18:01;;;;;;;5.53;0.68;;;;;;;13.40;79.17;101122.13;5010355;28;20025;-86
2022/09/16 10:20:33;;;;;;;4.20;0.90;;;;;;;12.91;81.48;101121.72;5030880;28;20025;-85
2022/09/16 10:23:01;;;;;;;;;;;;;;;13.29;80.28;101108.97;4997699;28;20018;-86
2022/09/16 10:25:28;;;;;;;5.38;0.90;;;;;;;12.77;85.05;101105.16;5003517;28;19912;-86
2022/09/16 10:28:00;;;;;;;4.55;0.60;;;;;;;12.66;85.48;101109.59;5010745;28;20105;-86
2022/09/16 10:30:27;;;;;;;3.28;1.00;;;;;;;12.55;87.51;101099.91;5010880;28;20028;-87
2022/09/16 10:33:00;;;;;;;5.88;0.60;;;;;;;12.55;87.30;101103.38;5014004;28;20496;-87
2022/09/16 10:35:32;;;;;;;2.22;0.60;;;;;;;12.53;88.00;101115.00;5036595;28;20048;-87
2022/09/16 10:38:11;;;;;;;4.60;1.00;;;;;;;12.53;88.34;101115.84;5017966;28;20120;-88
2022/09/16 10:40:37;;;;;;;3.58;0.75;;;;;;;12.57;88.72;101111.16;5030647;28;20036;-88
2022/09/16 10:43:05;;;;;;;4.63;1.13;;;;;;;12.44;91.21;101116.56;5013477;28;20021;-88
2022/09/16 10:45:36;;;;;;;5.18;1.15;;;;;;;12.54;93.41;101116.69;5013998;28;20057;-88
2022/09/16 10:48:13;;;;;;;2.90;0.80;;;;;;;12.85;92.56;101112.50;5029993;28;20029;-88
2022/09/16 10:50:38;;;;;;;7.25;0.82;;;;;;;13.07;93.69;101104.53;5031273;28;20025;-89
2022/09/16 10:53:21;;;;;;;4.25;1.00;;;;;;;13.24;94.67;101110.31;5013677;28;20025;-89
2022/09/16 10:55:56;;;;;;;5.35;1.33;;;;;;;13.31;96.05;101106.19;5031529;28;20021;-91
2022/09/16 10:58:22;;;;;;;9.20;1.00;;;;;;;13.36;94.47;101102.22;5013931;28;20037;-90
2022/09/16 11:01:06;;;;;;;6.45;0.82;;;;;;;13.44;94.14;101096.28;5014090;28;20045;-90
2022/09/16 11:04:21;;;;;;;7.47;0.98;;;;;;;13.54;92.80;101102.50;5013694;28;20029;-91
2022/09/16 11:07:12;;;;;;;5.63;1.30;;;;;;;13.58;92.61;101103.91;5004104;28;20049;-91
2022/09/16 11:09:46;;;;;;;5.10;1.30;;;;;;;13.51;91.85;101102.75;5031545;28;20048;-90
2022/09/16 11:12:27;;;;;;;5.75;1.38;;;;;;;13.58;93.10;101103.91;5031292;28;20099;-90
2022/09/16 11:15:11;;;;;;;4.63;1.30;;;;;;;13.64;92.79;101103.44;5044584;28;20025;-89
2022/09/16 11:18:14;;;;;;;3.45;1.40;;;;;;;13.62;92.81;101110.66;5053337;28;20013;-89
2022/09/16 11:21:13;;;;;;;3.95;1.30;;;;;;;13.62;90.93;101109.81;5028145;28;20072;-89
2022/09/16 11:24:06;;;;;;;7.43;2.17;;;;;;;13.63;92.08;101107.03;5049925;28;20017;-90
2022/09/16 11:26:40;;;;;;;;;;;;;;;13.78;90.81;101102.28;5048550;28;20064;-91
2022/09/16 11:29:13;;;;;;;7.20;1.52;;;;;;;13.99;94.74;101105.75;5051513;28;19897;-91
2022/09/16 11:31:48;;;;;;;5.43;1.52;;;;;;;14.24;92.31;101101.88;5034144;28;20081;-89
2022/09/16 11:34:35;;;;;;;7.32;1.83;;;;;;;14.69;92.14;101101.56;5048341;28;20048;-91
2022/09/16 11:37:18;;;;;;;5.32;1.55;;;;;;;14.96;88.75;101104.47;5032679;28;20021;-91
2022/09/16 11:39:43;;;;;;;;;;;;;;;15.21;88.95;101107.56;5036339;28;20013;-91
2022/09/16 11:42:34;;;;;;;2.78;1.20;;;;;;;15.40;85.10;101107.59;5028157;28;19936;-90
2022/09/16 11:45:15;;;;;;;6.53;1.70;;;;;;;15.74;83.55;101112.53;5030961;28;20056;-90
2022/09/16 11:48:00;;;;;;;3.08;1.10;;;;;;;15.74;79.71;101117.84;5027753;28;20025;-90